Terminal Aerodrome Forecast
Issued by NWS

Home | Current Version | Previous Version | Text Only | Print | Product List | Glossary On
Versions: 1 2 3 4 5 6 7 8 9 10 11 12 13 14 15 16 17 18 19
000
FTUS43 KJKL 131700
TAFSME
TAF
KSME 131731Z 1318/1418 22014G22KT P6SM BKN250
     FM140000 19008KT P6SM SCT050 BKN200 WS015/20040KT
     FM141400 20013G22KT P6SM VCSH OVC050=

USA.gov is the U.S. government's official web portal to all federal, state and local government web resources and services.